Weather at Lester B. Pearson International Airport

Public forecast

Using degrees Celsius for public forecast. Weather courtesy of forecast.io.

Current aviation weather report (METAR) for Lester B. Pearson International Airport

2022/11/30 11:00 (retrieved 14 minutes ago)

CYYZ 301100Z 14009KT 6SM -RA BR BKN004 OVC011 06/06 A2955 RMK SF5SC3 SLP014

Aviation forecast (TAF) for Lester B. Pearson International Airport

2022/11/30 09:42 (retrieved 2 hours ago)

TAF TAF CYYZ 300840Z 3009/0112 12012G22KT P6SM OVC030 TEMPO 3009/3011 3SM -SHRA BR OVC020 FM301100 16012G22KT 6SM -RA BR OVC025 TEMPO 3011/3016 3SM -RA BR OVC015 BECMG 3012/3014 18015G25KT FM301600 20015G25KT 5SM -RA BR OVC010 FM301800 26020G32KT P6SM SCT020 BKN025 FM302100 27025G40KT P6SM SCT020 BKN030 TEMPO 3022/0103 4SM -SHSN OVC020 BECMG 0100/0102 26020G35KT FM010600 27020G30KT P6SM BKN030 RMK NXT FCST BY 301200Z